sensor_id;sensor_type;location;lat;lon;timestamp;P1;durP1;ratioP1;P2;durP2;ratioP2
42702;SDS011;28341;52.064;4.920;2024-02-26T00:00:29;7.00;;;5.28;;
42702;SDS011;28341;52.064;4.920;2024-02-26T00:02:35;8.52;;;5.35;;
42702;SDS011;28341;52.064;4.920;2024-02-26T00:04:38;7.28;;;5.40;;
42702;SDS011;28341;52.064;4.920;2024-02-26T00:06:42;7.45;;;5.15;;
42702;SDS011;28341;52.064;4.920;2024-02-26T00:08:44;7.05;;;4.90;;
42702;SDS011;28341;52.064;4.920;2024-02-26T00:10:49;9.10;;;5.72;;
42702;SDS011;28341;52.064;4.920;2024-02-26T00:12:53;7.47;;;5.63;;
42702;SDS011;28341;52.064;4.920;2024-02-26T00:14:55;6.85;;;5.70;;
42702;SDS011;28341;52.064;4.920;2024-02-26T00:17:02;7.57;;;5.57;;
42702;SDS011;28341;52.064;4.920;2024-02-26T00:19:07;6.47;;;5.22;;
42702;SDS011;28341;52.064;4.920;2024-02-26T00:21:09;8.57;;;6.20;;
42702;SDS011;28341;52.064;4.920;2024-02-26T00:23:14;8.25;;;5.97;;
42702;SDS011;28341;52.064;4.920;2024-02-26T00:25:19;10.18;;;5.70;;
42702;SDS011;28341;52.064;4.920;2024-02-26T00:27:23;8.13;;;5.60;;
42702;SDS011;28341;52.064;4.920;2024-02-26T00:29:25;7.65;;;6.30;;
42702;SDS011;28341;52.064;4.920;2024-02-26T00:31:30;9.32;;;5.80;;
42702;SDS011;28341;52.064;4.920;2024-02-26T00:33:37;9.77;;;6.28;;
42702;SDS011;28341;52.064;4.920;2024-02-26T00:35:41;7.60;;;5.78;;
42702;SDS011;28341;52.064;4.920;2024-02-26T00:37:46;8.10;;;6.25;;
42702;SDS011;28341;52.064;4.920;2024-02-26T00:39:50;9.85;;;6.18;;
42702;SDS011;28341;52.064;4.920;2024-02-26T00:41:55;9.25;;;6.57;;
42702;SDS011;28341;52.064;4.920;2024-02-26T00:44:00;9.05;;;5.90;;
42702;SDS011;28341;52.064;4.920;2024-02-26T00:46:04;11.23;;;6.40;;
42702;SDS011;28341;52.064;4.920;2024-02-26T00:48:09;8.77;;;6.30;;
42702;SDS011;28341;52.064;4.920;2024-02-26T00:50:16;9.48;;;7.47;;
42702;SDS011;28341;52.064;4.920;2024-02-26T00:52:21;8.68;;;6.35;;
42702;SDS011;28341;52.064;4.920;2024-02-26T00:54:25;6.90;;;6.05;;
42702;SDS011;28341;52.064;4.920;2024-02-26T00:56:30;10.77;;;6.68;;
42702;SDS011;28341;52.064;4.920;2024-02-26T00:58:35;9.80;;;6.85;;
42702;SDS011;28341;52.064;4.920;2024-02-26T01:00:37;8.43;;;6.90;;
42702;SDS011;28341;52.064;4.920;2024-02-26T01:02:41;8.13;;;6.57;;
42702;SDS011;28341;52.064;4.920;2024-02-26T01:04:47;9.43;;;6.35;;
42702;SDS011;28341;52.064;4.920;2024-02-26T01:06:54;7.53;;;6.72;;
42702;SDS011;28341;52.064;4.920;2024-02-26T01:08:58;8.13;;;6.55;;
42702;SDS011;28341;52.064;4.920;2024-02-26T01:11:00;8.38;;;7.05;;
42702;SDS011;28341;52.064;4.920;2024-02-26T01:13:04;7.57;;;6.72;;
42702;SDS011;28341;52.064;4.920;2024-02-26T01:15:09;8.27;;;6.68;;
42702;SDS011;28341;52.064;4.920;2024-02-26T01:17:14;7.38;;;6.53;;
42702;SDS011;28341;52.064;4.920;2024-02-26T01:19:19;7.95;;;7.00;;
42702;SDS011;28341;52.064;4.920;2024-02-26T01:21:23;9.10;;;6.85;;
42702;SDS011;28341;52.064;4.920;2024-02-26T01:23:32;7.22;;;6.53;;
42702;SDS011;28341;52.064;4.920;2024-02-26T01:25:36;9.27;;;6.50;;
42702;SDS011;28341;52.064;4.920;2024-02-26T01:27:41;9.20;;;7.15;;
42702;SDS011;28341;52.064;4.920;2024-02-26T01:31:48;7.60;;;6.68;;
42702;SDS011;28341;52.064;4.920;2024-02-26T01:33:52;7.95;;;6.70;;
42702;SDS011;28341;52.064;4.920;2024-02-26T01:35:57;8.55;;;6.93;;
42702;SDS011;28341;52.064;4.920;2024-02-26T01:38:01;7.45;;;6.47;;
42702;SDS011;28341;52.064;4.920;2024-02-26T01:40:09;11.13;;;6.75;;
42702;SDS011;28341;52.064;4.920;2024-02-26T01:42:18;8.63;;;6.90;;
42702;SDS011;28341;52.064;4.920;2024-02-26T01:44:22;11.27;;;7.35;;
42702;SDS011;28341;52.064;4.920;2024-02-26T01:46:27;8.75;;;6.72;;
42702;SDS011;28341;52.064;4.920;2024-02-26T01:48:32;10.77;;;7.15;;
42702;SDS011;28341;52.064;4.920;2024-02-26T01:50:34;7.55;;;6.70;;
42702;SDS011;28341;52.064;4.920;2024-02-26T01:52:39;8.98;;;6.90;;
42702;SDS011;28341;52.064;4.920;2024-02-26T01:54:44;9.05;;;6.95;;
42702;SDS011;28341;52.064;4.920;2024-02-26T01:56:51;8.32;;;6.50;;
42702;SDS011;28341;52.064;4.920;2024-02-26T01:58:56;9.77;;;7.15;;
42702;SDS011;28341;52.064;4.920;2024-02-26T02:01:01;8.85;;;6.82;;
42702;SDS011;28341;52.064;4.920;2024-02-26T02:03:07;10.48;;;7.45;;
42702;SDS011;28341;52.064;4.920;2024-02-26T02:05:12;11.15;;;8.20;;
42702;SDS011;28341;52.064;4.920;2024-02-26T02:07:18;8.10;;;7.03;;
42702;SDS011;28341;52.064;4.920;2024-02-26T02:09:23;9.52;;;7.80;;
42702;SDS011;28341;52.064;4.920;2024-02-26T02:11:28;11.00;;;7.70;;
42702;SDS011;28341;52.064;4.920;2024-02-26T02:13:35;9.18;;;8.15;;
42702;SDS011;28341;52.064;4.920;2024-02-26T02:15:40;11.20;;;8.38;;
42702;SDS011;28341;52.064;4.920;2024-02-26T02:17:44;10.63;;;7.50;;
42702;SDS011;28341;52.064;4.920;2024-02-26T02:19:49;10.05;;;8.32;;
42702;SDS011;28341;52.064;4.920;2024-02-26T02:21:53;8.73;;;7.40;;
42702;SDS011;28341;52.064;4.920;2024-02-26T02:23:58;12.65;;;8.52;;
42702;SDS011;28341;52.064;4.920;2024-02-26T02:26:00;9.10;;;8.15;;
42702;SDS011;28341;52.064;4.920;2024-02-26T02:28:04;12.10;;;8.40;;
42702;SDS011;28341;52.064;4.920;2024-02-26T02:30:10;12.95;;;8.40;;
42702;SDS011;28341;52.064;4.920;2024-02-26T02:32:15;10.82;;;8.30;;
42702;SDS011;28341;52.064;4.920;2024-02-26T02:34:21;9.88;;;8.88;;
42702;SDS011;28341;52.064;4.920;2024-02-26T02:36:23;11.57;;;8.48;;
42702;SDS011;28341;52.064;4.920;2024-02-26T02:38:30;11.57;;;9.00;;
42702;SDS011;28341;52.064;4.920;2024-02-26T02:40:34;10.00;;;8.63;;
42702;SDS011;28341;52.064;4.920;2024-02-26T02:42:39;9.68;;;8.70;;
42702;SDS011;28341;52.064;4.920;2024-02-26T02:44:43;11.15;;;8.82;;
42702;SDS011;28341;52.064;4.920;2024-02-26T02:46:47;9.52;;;8.30;;
42702;SDS011;28341;52.064;4.920;2024-02-26T02:48:53;12.38;;;8.98;;
42702;SDS011;28341;52.064;4.920;2024-02-26T02:50:58;11.63;;;9.07;;
42702;SDS011;28341;52.064;4.920;2024-02-26T02:53:02;12.60;;;9.38;;
42702;SDS011;28341;52.064;4.920;2024-02-26T02:55:10;15.20;;;8.82;;
42702;SDS011;28341;52.064;4.920;2024-02-26T02:57:15;10.60;;;9.18;;
42702;SDS011;28341;52.064;4.920;2024-02-26T02:59:19;11.13;;;8.90;;
42702;SDS011;28341;52.064;4.920;2024-02-26T03:01:24;12.18;;;8.98;;
42702;SDS011;28341;52.064;4.920;2024-02-26T03:03:28;12.40;;;9.52;;
42702;SDS011;28341;52.064;4.920;2024-02-26T03:05:30;13.85;;;10.13;;
42702;SDS011;28341;52.064;4.920;2024-02-26T03:07:34;9.48;;;8.25;;
42702;SDS011;28341;52.064;4.920;2024-02-26T03:09:39;12.35;;;9.38;;
42702;SDS011;28341;52.064;4.920;2024-02-26T03:11:46;11.57;;;9.45;;
42702;SDS011;28341;52.064;4.920;2024-02-26T03:13:51;12.77;;;8.98;;
42702;SDS011;28341;52.064;4.920;2024-02-26T03:15:53;14.23;;;10.23;;
42702;SDS011;28341;52.064;4.920;2024-02-26T03:17:57;11.65;;;9.85;;
42702;SDS011;28341;52.064;4.920;2024-02-26T03:20:02;14.18;;;9.82;;
42702;SDS011;28341;52.064;4.920;2024-02-26T03:22:08;17.38;;;10.07;;
42702;SDS011;28341;52.064;4.920;2024-02-26T03:24:13;13.68;;;10.18;;
42702;SDS011;28341;52.064;4.920;2024-02-26T03:26:17;13.05;;;10.25;;
42702;SDS011;28341;52.064;4.920;2024-02-26T03:28:24;14.15;;;10.68;;
42702;SDS011;28341;52.064;4.920;2024-02-26T03:30:26;12.70;;;10.05;;
42702;SDS011;28341;52.064;4.920;2024-02-26T03:32:31;15.27;;;10.57;;
42702;SDS011;28341;52.064;4.920;2024-02-26T03:34:33;12.15;;;10.27;;
42702;SDS011;28341;52.064;4.920;2024-02-26T03:36:39;12.82;;;10.27;;
42702;SDS011;28341;52.064;4.920;2024-02-26T03:38:44;12.35;;;10.07;;
42702;SDS011;28341;52.064;4.920;2024-02-26T03:40:48;11.27;;;9.65;;
42702;SDS011;28341;52.064;4.920;2024-02-26T03:42:53;12.52;;;9.30;;
42702;SDS011;28341;52.064;4.920;2024-02-26T03:45:01;12.48;;;10.45;;
42702;SDS011;28341;52.064;4.920;2024-02-26T03:47:05;12.55;;;10.43;;
42702;SDS011;28341;52.064;4.920;2024-02-26T03:49:07;16.17;;;10.98;;
42702;SDS011;28341;52.064;4.920;2024-02-26T03:51:14;15.57;;;10.80;;
42702;SDS011;28341;52.064;4.920;2024-02-26T03:53:15;14.82;;;10.95;;
42702;SDS011;28341;52.064;4.920;2024-02-26T03:55:20;12.70;;;10.77;;
42702;SDS011;28341;52.064;4.920;2024-02-26T03:57:25;11.57;;;10.40;;
42702;SDS011;28341;52.064;4.920;2024-02-26T03:59:30;15.02;;;10.73;;
42702;SDS011;28341;52.064;4.920;2024-02-26T04:01:37;15.20;;;11.00;;
42702;SDS011;28341;52.064;4.920;2024-02-26T04:03:41;15.23;;;11.05;;
42702;SDS011;28341;52.064;4.920;2024-02-26T04:05:45;14.80;;;11.07;;
42702;SDS011;28341;52.064;4.920;2024-02-26T04:07:50;14.90;;;11.25;;
42702;SDS011;28341;52.064;4.920;2024-02-26T04:09:54;13.60;;;11.23;;
42702;SDS011;28341;52.064;4.920;2024-02-26T04:11:56;12.63;;;10.68;;
42702;SDS011;28341;52.064;4.920;2024-02-26T04:14:01;16.38;;;10.90;;
42702;SDS011;28341;52.064;4.920;2024-02-26T04:16:08;15.07;;;11.13;;
42702;SDS011;28341;52.064;4.920;2024-02-26T04:18:15;12.30;;;10.50;;
42702;SDS011;28341;52.064;4.920;2024-02-26T04:20:20;14.35;;;11.30;;
42702;SDS011;28341;52.064;4.920;2024-02-26T04:22:22;13.75;;;11.23;;
42702;SDS011;28341;52.064;4.920;2024-02-26T04:24:26;18.02;;;11.75;;
42702;SDS011;28341;52.064;4.920;2024-02-26T04:26:31;13.45;;;10.90;;
42702;SDS011;28341;52.064;4.920;2024-02-26T04:28:35;15.55;;;11.18;;
42702;SDS011;28341;52.064;4.920;2024-02-26T04:30:39;16.40;;;12.02;;
42702;SDS011;28341;52.064;4.920;2024-02-26T04:32:44;14.15;;;11.50;;
42702;SDS011;28341;52.064;4.920;2024-02-26T04:34:51;14.77;;;11.55;;
42702;SDS011;28341;52.064;4.920;2024-02-26T04:36:56;13.82;;;11.32;;
42702;SDS011;28341;52.064;4.920;2024-02-26T04:39:00;15.40;;;12.13;;
42702;SDS011;28341;52.064;4.920;2024-02-26T04:41:06;16.13;;;12.93;;
42702;SDS011;28341;52.064;4.920;2024-02-26T04:43:11;18.98;;;12.98;;
42702;SDS011;28341;52.064;4.920;2024-02-26T04:45:16;15.13;;;12.90;;
42702;SDS011;28341;52.064;4.920;2024-02-26T04:47:20;16.05;;;12.73;;
42702;SDS011;28341;52.064;4.920;2024-02-26T04:49:22;16.67;;;13.57;;
42702;SDS011;28341;52.064;4.920;2024-02-26T04:51:29;17.20;;;13.48;;
42702;SDS011;28341;52.064;4.920;2024-02-26T04:53:31;17.92;;;14.10;;
42702;SDS011;28341;52.064;4.920;2024-02-26T04:55:36;19.15;;;13.60;;
42702;SDS011;28341;52.064;4.920;2024-02-26T04:57:37;16.73;;;13.27;;
42702;SDS011;28341;52.064;4.920;2024-02-26T04:59:42;17.55;;;13.85;;
42702;SDS011;28341;52.064;4.920;2024-02-26T05:01:45;18.50;;;14.88;;
42702;SDS011;28341;52.064;4.920;2024-02-26T05:03:51;18.83;;;14.63;;
42702;SDS011;28341;52.064;4.920;2024-02-26T05:05:56;19.92;;;14.05;;
42702;SDS011;28341;52.064;4.920;2024-02-26T05:08:03;20.92;;;14.45;;
42702;SDS011;28341;52.064;4.920;2024-02-26T05:10:08;16.92;;;14.05;;
42702;SDS011;28341;52.064;4.920;2024-02-26T05:12:13;18.55;;;14.00;;
42702;SDS011;28341;52.064;4.920;2024-02-26T05:14:17;17.65;;;14.55;;
42702;SDS011;28341;52.064;4.920;2024-02-26T05:16:22;17.08;;;13.63;;
42702;SDS011;28341;52.064;4.920;2024-02-26T05:18:27;19.45;;;14.57;;
42702;SDS011;28341;52.064;4.920;2024-02-26T05:20:32;19.38;;;15.13;;
42702;SDS011;28341;52.064;4.920;2024-02-26T05:22:38;17.33;;;13.93;;
42702;SDS011;28341;52.064;4.920;2024-02-26T05:24:45;19.50;;;14.85;;
42702;SDS011;28341;52.064;4.920;2024-02-26T05:26:49;21.20;;;14.45;;
42702;SDS011;28341;52.064;4.920;2024-02-26T05:28:54;19.85;;;14.88;;
42702;SDS011;28341;52.064;4.920;2024-02-26T05:30:59;17.60;;;14.27;;
42702;SDS011;28341;52.064;4.920;2024-02-26T05:33:04;19.83;;;14.93;;
42702;SDS011;28341;52.064;4.920;2024-02-26T05:35:08;18.20;;;15.18;;
42702;SDS011;28341;52.064;4.920;2024-02-26T05:37:13;18.17;;;14.48;;
42702;SDS011;28341;52.064;4.920;2024-02-26T05:39:18;17.65;;;14.30;;
42702;SDS011;28341;52.064;4.920;2024-02-26T05:41:25;19.77;;;15.00;;
42702;SDS011;28341;52.064;4.920;2024-02-26T05:43:29;16.00;;;13.43;;
42702;SDS011;28341;52.064;4.920;2024-02-26T05:45:34;18.45;;;14.98;;
42702;SDS011;28341;52.064;4.920;2024-02-26T05:47:38;19.40;;;15.32;;
42702;SDS011;28341;52.064;4.920;2024-02-26T05:49:43;19.80;;;14.95;;
42702;SDS011;28341;52.064;4.920;2024-02-26T05:51:47;18.10;;;14.60;;
42702;SDS011;28341;52.064;4.920;2024-02-26T05:53:52;21.00;;;15.50;;
42702;SDS011;28341;52.064;4.920;2024-02-26T05:55:56;20.92;;;15.60;;
42702;SDS011;28341;52.064;4.920;2024-02-26T05:58:03;21.52;;;16.08;;
42702;SDS011;28341;52.064;4.920;2024-02-26T06:00:08;19.13;;;15.25;;
42702;SDS011;28341;52.064;4.920;2024-02-26T06:02:15;20.08;;;15.50;;
42702;SDS011;28341;52.064;4.920;2024-02-26T06:04:19;23.95;;;16.33;;
42702;SDS011;28341;52.064;4.920;2024-02-26T06:06:23;22.40;;;16.38;;
42702;SDS011;28341;52.064;4.920;2024-02-26T06:08:28;24.80;;;16.85;;
42702;SDS011;28341;52.064;4.920;2024-02-26T06:10:32;22.83;;;16.95;;
42702;SDS011;28341;52.064;4.920;2024-02-26T06:12:36;21.90;;;16.55;;
42702;SDS011;28341;52.064;4.920;2024-02-26T06:14:41;23.35;;;16.90;;
42702;SDS011;28341;52.064;4.920;2024-02-26T06:16:47;23.67;;;17.25;;
42702;SDS011;28341;52.064;4.920;2024-02-26T06:18:51;26.48;;;17.48;;
42702;SDS011;28341;52.064;4.920;2024-02-26T06:20:56;24.80;;;17.52;;
42702;SDS011;28341;52.064;4.920;2024-02-26T06:23:01;29.08;;;17.55;;
42702;SDS011;28341;52.064;4.920;2024-02-26T06:25:03;23.98;;;17.83;;
42702;SDS011;28341;52.064;4.920;2024-02-26T06:27:08;26.45;;;19.05;;
42702;SDS011;28341;52.064;4.920;2024-02-26T06:29:13;27.98;;;18.83;;
42702;SDS011;28341;52.064;4.920;2024-02-26T06:31:21;27.45;;;18.92;;
42702;SDS011;28341;52.064;4.920;2024-02-26T06:33:27;31.27;;;20.63;;
42702;SDS011;28341;52.064;4.920;2024-02-26T06:35:32;29.90;;;21.30;;
42702;SDS011;28341;52.064;4.920;2024-02-26T06:37:36;33.85;;;21.17;;
42702;SDS011;28341;52.064;4.920;2024-02-26T06:39:41;34.03;;;22.95;;
42702;SDS011;28341;52.064;4.920;2024-02-26T06:41:45;30.40;;;21.48;;
42702;SDS011;28341;52.064;4.920;2024-02-26T06:43:49;31.92;;;22.05;;
42702;SDS011;28341;52.064;4.920;2024-02-26T06:45:54;34.30;;;22.23;;
42702;SDS011;28341;52.064;4.920;2024-02-26T06:48:01;34.58;;;22.60;;
42702;SDS011;28341;52.064;4.920;2024-02-26T06:50:06;32.40;;;22.27;;
42702;SDS011;28341;52.064;4.920;2024-02-26T06:52:11;36.80;;;23.25;;
42702;SDS011;28341;52.064;4.920;2024-02-26T06:54:13;36.65;;;24.73;;
42702;SDS011;28341;52.064;4.920;2024-02-26T06:56:18;39.42;;;27.67;;
42702;SDS011;28341;52.064;4.920;2024-02-26T06:58:22;38.15;;;24.88;;
42702;SDS011;28341;52.064;4.920;2024-02-26T07:00:28;37.97;;;26.65;;
42702;SDS011;28341;52.064;4.920;2024-02-26T07:02:35;37.22;;;24.25;;
42702;SDS011;28341;52.064;4.920;2024-02-26T07:04:43;39.47;;;24.42;;
42702;SDS011;28341;52.064;4.920;2024-02-26T07:06:48;34.30;;;23.77;;
42702;SDS011;28341;52.064;4.920;2024-02-26T07:08:52;40.60;;;25.45;;
42702;SDS011;28341;52.064;4.920;2024-02-26T07:10:57;40.42;;;25.77;;
42702;SDS011;28341;52.064;4.920;2024-02-26T07:12:59;36.50;;;26.02;;
42702;SDS011;28341;52.064;4.920;2024-02-26T07:15:04;37.72;;;25.92;;
42702;SDS011;28341;52.064;4.920;2024-02-26T07:17:10;38.28;;;26.95;;
42702;SDS011;28341;52.064;4.920;2024-02-26T07:19:16;40.55;;;26.75;;
42702;SDS011;28341;52.064;4.920;2024-02-26T07:21:23;40.17;;;28.77;;
42702;SDS011;28341;52.064;4.920;2024-02-26T07:23:28;39.30;;;27.73;;
42702;SDS011;28341;52.064;4.920;2024-02-26T07:25:32;40.95;;;27.83;;
42702;SDS011;28341;52.064;4.920;2024-02-26T07:27:34;43.47;;;30.73;;
42702;SDS011;28341;52.064;4.920;2024-02-26T07:29:39;41.17;;;28.17;;
42702;SDS011;28341;52.064;4.920;2024-02-26T07:31:43;39.70;;;27.98;;
42702;SDS011;28341;52.064;4.920;2024-02-26T07:33:48;43.28;;;31.08;;
42702;SDS011;28341;52.064;4.920;2024-02-26T07:35:52;51.72;;;37.83;;
42702;SDS011;28341;52.064;4.920;2024-02-26T07:37:59;40.78;;;29.98;;
42702;SDS011;28341;52.064;4.920;2024-02-26T07:40:04;43.38;;;30.13;;
42702;SDS011;28341;52.064;4.920;2024-02-26T07:42:11;44.85;;;30.20;;
42702;SDS011;28341;52.064;4.920;2024-02-26T07:44:15;40.83;;;28.13;;
42702;SDS011;28341;52.064;4.920;2024-02-26T07:46:19;40.17;;;28.25;;
42702;SDS011;28341;52.064;4.920;2024-02-26T07:48:23;38.92;;;28.90;;
42702;SDS011;28341;52.064;4.920;2024-02-26T07:50:27;38.78;;;28.75;;
42702;SDS011;28341;52.064;4.920;2024-02-26T07:52:31;38.83;;;28.02;;
42702;SDS011;28341;52.064;4.920;2024-02-26T07:54:38;35.58;;;26.25;;
42702;SDS011;28341;52.064;4.920;2024-02-26T07:56:42;38.20;;;26.48;;
42702;SDS011;28341;52.064;4.920;2024-02-26T07:58:47;37.65;;;26.45;;
42702;SDS011;28341;52.064;4.920;2024-02-26T08:00:51;34.88;;;26.02;;
42702;SDS011;28341;52.064;4.920;2024-02-26T08:02:56;40.03;;;29.00;;
42702;SDS011;28341;52.064;4.920;2024-02-26T08:05:01;32.85;;;24.98;;
42702;SDS011;28341;52.064;4.920;2024-02-26T08:07:06;35.65;;;25.10;;
42702;SDS011;28341;52.064;4.920;2024-02-26T08:09:10;29.95;;;23.95;;
42702;SDS011;28341;52.064;4.920;2024-02-26T08:11:18;28.45;;;23.02;;
42702;SDS011;28341;52.064;4.920;2024-02-26T08:13:23;29.27;;;22.70;;
42702;SDS011;28341;52.064;4.920;2024-02-26T08:15:27;28.77;;;22.30;;
42702;SDS011;28341;52.064;4.920;2024-02-26T08:17:31;28.90;;;22.25;;
42702;SDS011;28341;52.064;4.920;2024-02-26T08:19:36;27.13;;;21.45;;
42702;SDS011;28341;52.064;4.920;2024-02-26T08:21:38;26.83;;;21.98;;
42702;SDS011;28341;52.064;4.920;2024-02-26T08:23:43;25.20;;;21.42;;
42702;SDS011;28341;52.064;4.920;2024-02-26T08:25:47;26.90;;;21.35;;
42702;SDS011;28341;52.064;4.920;2024-02-26T08:27:54;29.13;;;21.40;;
42702;SDS011;28341;52.064;4.920;2024-02-26T08:29:59;24.60;;;20.25;;
42702;SDS011;28341;52.064;4.920;2024-02-26T08:32:03;26.67;;;21.25;;
42702;SDS011;28341;52.064;4.920;2024-02-26T08:34:07;24.83;;;19.45;;
42702;SDS011;28341;52.064;4.920;2024-02-26T08:36:12;27.38;;;20.88;;
42702;SDS011;28341;52.064;4.920;2024-02-26T08:38:14;25.17;;;19.90;;
42702;SDS011;28341;52.064;4.920;2024-02-26T08:40:18;25.40;;;20.10;;
42702;SDS011;28341;52.064;4.920;2024-02-26T08:42:22;23.75;;;19.20;;
42702;SDS011;28341;52.064;4.920;2024-02-26T08:44:29;24.63;;;18.92;;
42702;SDS011;28341;52.064;4.920;2024-02-26T08:46:34;22.17;;;17.30;;
42702;SDS011;28341;52.064;4.920;2024-02-26T08:48:38;22.42;;;16.33;;
42702;SDS011;28341;52.064;4.920;2024-02-26T08:50:43;21.35;;;16.17;;
42702;SDS011;28341;52.064;4.920;2024-02-26T08:52:47;22.58;;;16.63;;
42702;SDS011;28341;52.064;4.920;2024-02-26T08:54:53;23.02;;;16.70;;
42702;SDS011;28341;52.064;4.920;2024-02-26T08:56:58;21.23;;;15.68;;
42702;SDS011;28341;52.064;4.920;2024-02-26T08:59:03;20.83;;;15.25;;
42702;SDS011;28341;52.064;4.920;2024-02-26T09:01:10;55.88;;;37.33;;
42702;SDS011;28341;52.064;4.920;2024-02-26T09:03:14;18.10;;;14.52;;
42702;SDS011;28341;52.064;4.920;2024-02-26T09:05:19;20.23;;;15.27;;
42702;SDS011;28341;52.064;4.920;2024-02-26T09:07:23;18.25;;;13.82;;
42702;SDS011;28341;52.064;4.920;2024-02-26T09:09:28;19.30;;;13.98;;
42702;SDS011;28341;52.064;4.920;2024-02-26T09:11:32;20.77;;;14.18;;
42702;SDS011;28341;52.064;4.920;2024-02-26T09:13:36;19.27;;;13.70;;
42702;SDS011;28341;52.064;4.920;2024-02-26T09:15:38;17.73;;;12.85;;
42702;SDS011;28341;52.064;4.920;2024-02-26T09:17:45;16.23;;;12.98;;
42702;SDS011;28341;52.064;4.920;2024-02-26T09:19:50;17.52;;;12.63;;
42702;SDS011;28341;52.064;4.920;2024-02-26T09:21:55;20.40;;;13.50;;
42702;SDS011;28341;52.064;4.920;2024-02-26T09:23:59;13.63;;;11.75;;
42702;SDS011;28341;52.064;4.920;2024-02-26T09:26:05;14.75;;;11.10;;
42702;SDS011;28341;52.064;4.920;2024-02-26T09:28:09;15.48;;;11.80;;
42702;SDS011;28341;52.064;4.920;2024-02-26T09:30:16;14.15;;;10.85;;
42702;SDS011;28341;52.064;4.920;2024-02-26T09:32:20;15.93;;;11.05;;
42702;SDS011;28341;52.064;4.920;2024-02-26T09:34:24;15.00;;;10.93;;
42702;SDS011;28341;52.064;4.920;2024-02-26T09:36:29;17.08;;;11.10;;
42702;SDS011;28341;52.064;4.920;2024-02-26T09:38:33;14.02;;;10.73;;
42702;SDS011;28341;52.064;4.920;2024-02-26T09:40:40;13.43;;;10.25;;
42702;SDS011;28341;52.064;4.920;2024-02-26T09:42:45;14.82;;;10.90;;
42702;SDS011;28341;52.064;4.920;2024-02-26T09:44:49;15.88;;;10.88;;
42702;SDS011;28341;52.064;4.920;2024-02-26T09:46:57;11.52;;;10.07;;
42702;SDS011;28341;52.064;4.920;2024-02-26T09:49:02;14.52;;;10.77;;
42702;SDS011;28341;52.064;4.920;2024-02-26T09:51:09;14.18;;;10.18;;
42702;SDS011;28341;52.064;4.920;2024-02-26T09:53:14;13.55;;;9.90;;
42702;SDS011;28341;52.064;4.920;2024-02-26T09:55:18;14.00;;;10.70;;
42702;SDS011;28341;52.064;4.920;2024-02-26T09:57:22;11.90;;;9.88;;
42702;SDS011;28341;52.064;4.920;2024-02-26T09:59:25;21.52;;;16.10;;
42702;SDS011;28341;52.064;4.920;2024-02-26T10:01:30;12.82;;;9.90;;
42702;SDS011;28341;52.064;4.920;2024-02-26T10:03:37;12.88;;;9.98;;
42702;SDS011;28341;52.064;4.920;2024-02-26T10:05:45;14.02;;;10.02;;
42702;SDS011;28341;52.064;4.920;2024-02-26T10:07:52;13.13;;;10.02;;
42702;SDS011;28341;52.064;4.920;2024-02-26T10:09:55;12.75;;;10.32;;
42702;SDS011;28341;52.064;4.920;2024-02-26T10:11:59;13.38;;;10.43;;
42702;SDS011;28341;52.064;4.920;2024-02-26T10:14:03;13.35;;;10.27;;
42702;SDS011;28341;52.064;4.920;2024-02-26T10:16:08;14.15;;;10.90;;
42702;SDS011;28341;52.064;4.920;2024-02-26T10:18:12;14.95;;;10.02;;
42702;SDS011;28341;52.064;4.920;2024-02-26T10:20:14;12.93;;;9.85;;
42702;SDS011;28341;52.064;4.920;2024-02-26T10:22:21;14.15;;;10.38;;
42702;SDS011;28341;52.064;4.920;2024-02-26T10:24:28;14.55;;;10.98;;
42702;SDS011;28341;52.064;4.920;2024-02-26T10:26:34;13.57;;;10.30;;
42702;SDS011;28341;52.064;4.920;2024-02-26T10:28:39;13.98;;;10.93;;
42702;SDS011;28341;52.064;4.920;2024-02-26T10:30:41;15.30;;;10.60;;
42702;SDS011;28341;52.064;4.920;2024-02-26T10:32:46;16.73;;;11.60;;
42702;SDS011;28341;52.064;4.920;2024-02-26T10:34:52;15.20;;;10.70;;
42702;SDS011;28341;52.064;4.920;2024-02-26T10:37:00;17.40;;;10.98;;
42702;SDS011;28341;52.064;4.920;2024-02-26T10:39:05;14.75;;;10.45;;
42702;SDS011;28341;52.064;4.920;2024-02-26T10:41:14;14.70;;;10.20;;
42702;SDS011;28341;52.064;4.920;2024-02-26T10:43:18;15.68;;;10.23;;
42702;SDS011;28341;52.064;4.920;2024-02-26T10:45:20;13.10;;;9.77;;
42702;SDS011;28341;52.064;4.920;2024-02-26T10:47:24;13.00;;;10.32;;
42702;SDS011;28341;52.064;4.920;2024-02-26T10:49:28;13.02;;;10.13;;
42702;SDS011;28341;52.064;4.920;2024-02-26T10:51:32;14.48;;;11.10;;
42702;SDS011;28341;52.064;4.920;2024-02-26T10:53:38;12.90;;;10.30;;
42702;SDS011;28341;52.064;4.920;2024-02-26T10:55:43;16.55;;;11.02;;
42702;SDS011;28341;52.064;4.920;2024-02-26T10:57:55;13.07;;;10.15;;
42702;SDS011;28341;52.064;4.920;2024-02-26T11:00:00;15.52;;;10.50;;
42702;SDS011;28341;52.064;4.920;2024-02-26T11:02:06;16.67;;;10.55;;
42702;SDS011;28341;52.064;4.920;2024-02-26T11:04:12;16.45;;;11.77;;
42702;SDS011;28341;52.064;4.920;2024-02-26T11:06:17;16.65;;;11.45;;
42702;SDS011;28341;52.064;4.920;2024-02-26T11:08:22;15.45;;;11.70;;
42702;SDS011;28341;52.064;4.920;2024-02-26T11:10:28;13.05;;;9.82;;
42702;SDS011;28341;52.064;4.920;2024-02-26T11:12:34;14.93;;;11.13;;
42702;SDS011;28341;52.064;4.920;2024-02-26T11:14:42;14.77;;;11.38;;
42702;SDS011;28341;52.064;4.920;2024-02-26T11:16:49;15.70;;;11.55;;
42702;SDS011;28341;52.064;4.920;2024-02-26T11:18:53;15.57;;;11.43;;
42702;SDS011;28341;52.064;4.920;2024-02-26T11:20:59;14.77;;;10.18;;
42702;SDS011;28341;52.064;4.920;2024-02-26T11:23:01;12.82;;;10.13;;
42702;SDS011;28341;52.064;4.920;2024-02-26T11:25:05;14.60;;;10.70;;
42702;SDS011;28341;52.064;4.920;2024-02-26T11:27:13;12.00;;;9.73;;
42702;SDS011;28341;52.064;4.920;2024-02-26T11:29:19;14.45;;;11.10;;
42702;SDS011;28341;52.064;4.920;2024-02-26T11:31:28;13.50;;;9.45;;
42702;SDS011;28341;52.064;4.920;2024-02-26T11:33:33;15.95;;;10.18;;
42702;SDS011;28341;52.064;4.920;2024-02-26T11:35:38;13.10;;;10.52;;
42702;SDS011;28341;52.064;4.920;2024-02-26T11:37:50;15.00;;;10.38;;
42702;SDS011;28341;52.064;4.920;2024-02-26T11:39:56;16.90;;;11.00;;
42702;SDS011;28341;52.064;4.920;2024-02-26T11:42:04;14.05;;;10.40;;
42702;SDS011;28341;52.064;4.920;2024-02-26T11:44:08;13.50;;;10.18;;
42702;SDS011;28341;52.064;4.920;2024-02-26T11:46:24;16.08;;;10.70;;
42702;SDS011;28341;52.064;4.920;2024-02-26T11:48:32;13.27;;;9.27;;
42702;SDS011;28341;52.064;4.920;2024-02-26T11:50:34;12.63;;;9.43;;
42702;SDS011;28341;52.064;4.920;2024-02-26T11:52:39;12.70;;;9.70;;
42702;SDS011;28341;52.064;4.920;2024-02-26T11:54:44;11.75;;;9.25;;
42702;SDS011;28341;52.064;4.920;2024-02-26T11:56:52;13.27;;;10.20;;
42702;SDS011;28341;52.064;4.920;2024-02-26T11:58:57;11.75;;;9.25;;
42702;SDS011;28341;52.064;4.920;2024-02-26T12:01:03;12.13;;;9.93;;
42702;SDS011;28341;52.064;4.920;2024-02-26T12:03:10;15.23;;;9.50;;
42702;SDS011;28341;52.064;4.920;2024-02-26T12:05:16;14.18;;;9.10;;
42702;SDS011;28341;52.064;4.920;2024-02-26T12:07:24;17.13;;;13.02;;
42702;SDS011;28341;52.064;4.920;2024-02-26T12:09:35;14.80;;;10.13;;
42702;SDS011;28341;52.064;4.920;2024-02-26T12:11:41;12.70;;;9.77;;
42702;SDS011;28341;52.064;4.920;2024-02-26T12:13:45;14.75;;;10.10;;
42702;SDS011;28341;52.064;4.920;2024-02-26T12:15:54;15.20;;;9.85;;
42702;SDS011;28341;52.064;4.920;2024-02-26T12:18:00;15.02;;;9.55;;